Oil Finn — OJ9326 — position and weather

sailwx.info

Track history (hours):
 
Tides and Currents Weather Stations Pressure Air Temp Water Temp Dewpoint Dewpoint Depression Visibility Wind Speed Wind Dir Waves Ship Positions

Oil Finn

Last reported at 2016-Jun-08 13:23 UTC. Time now 2016-Jun-28 06:05 UTC.
Position N 60°16' E 026°13'.
Warning: this ship's position is 19 days out of date.

Length 20 m; draft 2 m.

Type: Tanker. MMSI: 230033790.

Date/timePositionNaut miles runAvg speedWind from/ knotsBaromVisibWave heightAir tempDewpointWater temp
2016-Jun-08 13:23N 60°16' E 026°13'5 6.1
2016-Jun-08 12:33N 60°18' E 026°23'6 6.1
2016-Jun-08 11:33N 60°20' E 026°34'6 5.8
2016-Jun-08 10:33N 60°23' E 026°45'6 5.7
2016-Jun-08 09:33N 60°25' E 026°56'5 5.0
2016-Jun-08 08:33N 60°21' E 026°60'5 4.5
2016-Jun-08 07:31N 60°19' E 027°09'3 2.0
2016-Jun-08 06:14N 60°17' E 027°12'0 0.0
2016-Jun-07 15:13N 60°17' E 027°11'3 3.9
2016-Jun-07 14:33N 60°19' E 027°08'6 6.2
2016-Jun-07 13:34N 60°20' E 026°56'6 5.9
2016-Jun-07 12:33N 60°20' E 026°44'6 6.5
2016-Jun-07 11:34N 60°19' E 026°31'6 6.3
2016-Jun-07 10:33N 60°17' E 026°19'  
Track history (hours):
 
Tides and Currents Weather Stations Pressure Air Temp Water Temp Dewpoint Dewpoint Depression Visibility Wind Speed Wind Dir Waves Ship Positions

Oil Finn

Last reported at 2016-Jun-08 13:23 UTC. Time now 2016-Jun-28 06:05 UTC.
Position N 60°16' E 026°13'.
Warning: this ship's position is 19 days out of date.

Length 20 m; draft 2 m.

Type: Tanker. MMSI: 230033790.

Date/timePositionNaut miles runAvg speedWind from/ knotsBaromVisibWave heightAir tempDewpointWater temp
2016-Jun-08 13:23N 60°16' E 026°13'5 6.1
2016-Jun-08 12:33N 60°18' E 026°23'6 6.1
2016-Jun-08 11:33N 60°20' E 026°34'6 5.8
2016-Jun-08 10:33N 60°23' E 026°45'6 5.7
2016-Jun-08 09:33N 60°25' E 026°56'5 5.0
2016-Jun-08 08:33N 60°21' E 026°60'5 4.5
2016-Jun-08 07:31N 60°19' E 027°09'3 2.0
2016-Jun-08 06:14N 60°17' E 027°12'0 0.0
2016-Jun-07 15:13N 60°17' E 027°11'3 3.9
2016-Jun-07 14:33N 60°19' E 027°08'6 6.2
2016-Jun-07 13:34N 60°20' E 026°56'6 5.9
2016-Jun-07 12:33N 60°20' E 026°44'6 6.5
2016-Jun-07 11:34N 60°19' E 026°31'6 6.3
2016-Jun-07 10:33N 60°17' E 026°19'  

Dump ship's entire track history